createdAt,value
2022-12-28T00:00:10.768Z,1.60
2022-12-28T00:01:10.703Z,1.20
2022-12-28T00:02:10.812Z,1.50
2022-12-28T00:03:10.699Z,6.30
2022-12-28T00:04:10.783Z,4.10
2022-12-28T00:05:10.695Z,5.20
2022-12-28T00:06:10.670Z,1.80
2022-12-28T00:07:10.665Z,3.00
2022-12-28T00:08:10.617Z,2.50
2022-12-28T00:09:10.768Z,1.80
2022-12-28T00:10:10.681Z,6.60
2022-12-28T00:11:18.687Z,4.70
2022-12-28T00:12:11.643Z,2.80
2022-12-28T00:13:10.613Z,3.20
2022-12-28T00:14:10.611Z,1.40
2022-12-28T00:15:10.662Z,1.80
2022-12-28T00:16:10.670Z,1.80
2022-12-28T00:17:10.589Z,1.50
2022-12-28T00:18:10.586Z,1.90
2022-12-28T00:19:10.622Z,1.90
2022-12-28T00:20:10.674Z,2.20
2022-12-28T00:21:10.580Z,2.20
2022-12-28T00:22:10.593Z,2.30
2022-12-28T00:23:10.612Z,2.30
2022-12-28T00:24:10.580Z,1.80
2022-12-28T00:25:10.572Z,1.00
2022-12-28T00:26:10.601Z,1.60
2022-12-28T00:27:10.566Z,3.40
2022-12-28T00:28:10.564Z,1.20
2022-12-28T00:29:10.557Z,1.40
2022-12-28T00:30:10.522Z,1.40
2022-12-28T00:31:10.666Z,3.50
2022-12-28T00:32:10.527Z,2.20
2022-12-28T00:33:10.511Z,1.70
2022-12-28T00:34:10.501Z,2.10
2022-12-28T00:35:10.518Z,1.70
2022-12-28T00:36:10.485Z,3.00
2022-12-28T00:37:13.171Z,2.60
2022-12-28T00:38:11.483Z,1.50
2022-12-28T00:39:10.505Z,4.40
2022-12-28T00:40:10.487Z,2.10
2022-12-28T00:41:10.466Z,1.70
2022-12-28T00:42:10.613Z,1.90
2022-12-28T00:43:10.456Z,1.40
2022-12-28T00:44:10.496Z,1.70
2022-12-28T00:45:10.489Z,1.40
2022-12-28T00:46:10.528Z,2.40
2022-12-28T00:47:10.463Z,3.10
2022-12-28T00:48:10.493Z,1.90
2022-12-28T00:49:10.453Z,1.90
2022-12-28T00:50:10.459Z,1.30
2022-12-28T00:51:10.408Z,1.30
2022-12-28T00:52:10.472Z,1.80
2022-12-28T00:53:10.401Z,1.50
2022-12-28T00:54:10.385Z,3.00
2022-12-28T00:55:10.424Z,3.10
2022-12-28T00:56:10.429Z,2.80
2022-12-28T00:57:10.403Z,4.30
2022-12-28T00:58:10.372Z,1.40
2022-12-28T00:59:10.555Z,1.90
2022-12-28T01:00:10.417Z,1.70
2022-12-28T01:01:10.456Z,1.80
2022-12-28T01:02:10.428Z,4.50
2022-12-28T01:03:10.356Z,4.00
2022-12-28T01:04:10.401Z,1.60
2022-12-28T01:05:10.325Z,3.50
2022-12-28T01:06:10.340Z,2.50
2022-12-28T01:07:10.366Z,2.80
2022-12-28T01:08:10.339Z,3.30
2022-12-28T01:09:10.347Z,6.70
2022-12-28T01:10:10.346Z,2.60
2022-12-28T01:11:10.328Z,3.50
2022-12-28T01:12:10.347Z,4.30
2022-12-28T01:13:10.313Z,1.80
2022-12-28T01:14:10.315Z,2.00
2022-12-28T01:15:10.344Z,1.60
2022-12-28T01:16:10.322Z,1.70
2022-12-28T01:17:10.329Z,2.60
2022-12-28T01:18:10.275Z,2.90
2022-12-28T01:19:10.299Z,2.00
2022-12-28T01:20:10.309Z,2.50
2022-12-28T01:21:10.410Z,7.30
2022-12-28T01:22:10.275Z,1.40
2022-12-28T01:23:10.256Z,2.70
2022-12-28T01:24:10.270Z,3.70
2022-12-28T01:25:10.265Z,4.50
2022-12-28T01:26:10.263Z,1.60
2022-12-28T01:27:10.247Z,5.10
2022-12-28T01:28:10.220Z,2.10
2022-12-28T01:29:10.272Z,1.90
2022-12-28T01:30:10.223Z,1.50
2022-12-28T01:31:10.246Z,1.90
2022-12-28T01:32:10.315Z,4.30
2022-12-28T01:33:10.251Z,2.30
2022-12-28T01:34:10.202Z,1.80
2022-12-28T01:35:10.177Z,1.70
2022-12-28T01:36:10.216Z,2.20
2022-12-28T01:37:10.315Z,1.50
2022-12-28T01:38:10.164Z,2.00
2022-12-28T01:39:10.275Z,3.10
2022-12-28T01:40:10.192Z,3.10
2022-12-28T01:41:10.146Z,1.70
2022-12-28T01:42:10.181Z,2.10
2022-12-28T01:43:10.784Z,3.10
2022-12-28T01:44:10.173Z,3.40
2022-12-28T01:45:10.134Z,3.20
2022-12-28T01:46:10.124Z,2.00
2022-12-28T01:47:10.121Z,3.20
2022-12-28T01:48:11.168Z,4.50
2022-12-28T01:49:10.160Z,3.80
2022-12-28T01:50:10.099Z,2.20
2022-12-28T01:51:10.121Z,2.10
2022-12-28T01:52:10.111Z,2.00
2022-12-28T01:53:10.115Z,2.10
2022-12-28T01:54:10.119Z,5.20
2022-12-28T01:55:10.085Z,5.30
2022-12-28T01:56:10.702Z,4.40
2022-12-28T01:57:10.071Z,4.20
2022-12-28T01:58:10.087Z,4.50
2022-12-28T01:59:10.192Z,3.10
2022-12-28T02:00:10.061Z,3.80
2022-12-28T02:01:10.805Z,2.70
2022-12-28T02:02:10.197Z,2.80
2022-12-28T02:03:10.053Z,2.60
2022-12-28T02:04:11.072Z,3.30
2022-12-28T02:05:10.006Z,1.80
2022-12-28T02:06:10.098Z,5.10
2022-12-28T02:07:10.016Z,2.60
2022-12-28T02:08:09.969Z,2.60
2022-12-28T02:09:10.037Z,2.40
2022-12-28T02:10:44.412Z,3.10
2022-12-28T02:11:10.996Z,2.50
2022-12-28T02:12:09.958Z,2.70
2022-12-28T02:13:10.021Z,2.00
2022-12-28T02:14:09.986Z,2.10
2022-12-28T02:15:10.031Z,1.50
2022-12-28T02:16:09.975Z,1.90
2022-12-28T02:17:10.019Z,1.60
2022-12-28T02:18:09.931Z,4.10
2022-12-28T02:19:09.975Z,4.80
2022-12-28T02:20:11.048Z,2.00
2022-12-28T02:21:10.032Z,1.50
2022-12-28T02:22:09.949Z,1.70
2022-12-28T02:23:09.948Z,1.90
2022-12-28T02:24:09.974Z,1.20
2022-12-28T02:25:12.646Z,7.00
2022-12-28T02:26:09.923Z,1.50
2022-12-28T02:27:09.907Z,2.60
2022-12-28T02:28:09.883Z,4.10
2022-12-28T02:29:09.938Z,3.20
2022-12-28T02:30:09.912Z,1.50
2022-12-28T02:31:09.915Z,2.10
2022-12-28T02:32:09.903Z,3.30
2022-12-28T02:33:09.893Z,1.70
2022-12-28T02:34:09.859Z,2.90
2022-12-28T02:35:09.977Z,1.90
2022-12-28T02:36:16.155Z,1.70
2022-12-28T02:37:11.013Z,2.40
2022-12-28T02:38:09.835Z,2.70
2022-12-28T02:39:09.898Z,1.40
2022-12-28T02:40:09.990Z,7.60
2022-12-28T02:41:09.835Z,1.60
2022-12-28T02:42:09.854Z,1.60
2022-12-28T02:43:09.828Z,3.70
2022-12-28T02:44:09.833Z,2.30
2022-12-28T02:45:09.833Z,1.70
2022-12-28T02:46:10.663Z,1.70
2022-12-28T02:47:09.766Z,1.70
2022-12-28T02:48:09.795Z,1.90
2022-12-28T02:49:09.806Z,2.30
2022-12-28T02:50:09.812Z,1.50
2022-12-28T02:51:09.769Z,1.70
2022-12-28T02:52:09.781Z,1.90
2022-12-28T02:53:09.787Z,4.50
2022-12-28T02:54:09.783Z,3.90
2022-12-28T02:55:09.783Z,2.20
2022-12-28T02:56:09.797Z,2.00
2022-12-28T02:57:09.767Z,6.20
2022-12-28T02:58:09.717Z,4.90
2022-12-28T02:59:09.741Z,3.00
2022-12-28T03:00:09.762Z,1.70
2022-12-28T03:01:09.890Z,7.50
2022-12-28T03:02:09.818Z,2.60
2022-12-28T03:03:09.786Z,1.60
2022-12-28T03:04:09.738Z,1.50
2022-12-28T03:05:09.734Z,2.40
2022-12-28T03:06:09.676Z,1.70
2022-12-28T03:07:09.707Z,3.40
2022-12-28T03:08:09.684Z,4.50
2022-12-28T03:09:09.687Z,4.80
2022-12-28T03:10:09.662Z,2.30
2022-12-28T03:11:09.667Z,1.70
2022-12-28T03:12:09.625Z,3.50
2022-12-28T03:13:10.632Z,5.60
2022-12-28T03:14:09.672Z,3.80
2022-12-28T03:15:09.648Z,2.00
2022-12-28T03:16:09.650Z,1.50
2022-12-28T03:17:09.607Z,1.50
2022-12-28T03:18:09.645Z,1.60
2022-12-28T03:19:09.617Z,2.20
2022-12-28T03:20:09.646Z,1.60
2022-12-28T03:21:09.625Z,3.20
2022-12-28T03:22:09.610Z,2.40
2022-12-28T03:23:09.584Z,2.20
2022-12-28T03:24:09.664Z,1.30
2022-12-28T03:25:09.598Z,1.20
2022-12-28T03:26:09.530Z,4.40
2022-12-28T03:27:09.553Z,1.60
2022-12-28T03:28:09.634Z,2.70
2022-12-28T03:29:09.551Z,5.10
2022-12-28T03:30:09.575Z,3.10
2022-12-28T03:31:09.566Z,3.20
2022-12-28T03:32:09.533Z,1.50
2022-12-28T03:33:09.534Z,1.40
2022-12-28T03:34:09.544Z,1.20
2022-12-28T03:35:09.515Z,1.20
2022-12-28T03:36:09.535Z,5.10
2022-12-28T03:37:09.511Z,1.40
2022-12-28T03:38:09.482Z,2.00
2022-12-28T03:39:09.522Z,1.80
2022-12-28T03:40:09.535Z,2.00
2022-12-28T03:41:09.487Z,1.40
2022-12-28T03:42:09.450Z,3.10
2022-12-28T03:43:09.424Z,4.00
2022-12-28T03:44:09.437Z,1.60
2022-12-28T03:45:09.472Z,2.40
2022-12-28T03:46:09.511Z,1.80
2022-12-28T03:47:09.418Z,2.20
2022-12-28T03:48:09.420Z,2.10
2022-12-28T03:49:09.455Z,1.00
2022-12-28T03:50:09.436Z,1.30
2022-12-28T03:51:09.450Z,1.30
2022-12-28T03:52:09.389Z,1.20
2022-12-28T03:53:09.375Z,1.40
2022-12-28T03:54:09.424Z,1.40
2022-12-28T03:55:09.433Z,2.00
2022-12-28T03:56:09.364Z,2.30
2022-12-28T03:57:09.413Z,0.90
2022-12-28T03:58:09.398Z,4.40
2022-12-28T03:59:09.379Z,1.40
2022-12-28T04:00:09.359Z,1.30
2022-12-28T04:01:09.439Z,1.70
2022-12-28T04:02:09.421Z,4.40
2022-12-28T04:03:09.374Z,3.50
2022-12-28T04:04:09.345Z,2.60
2022-12-28T04:05:09.352Z,1.60
2022-12-28T04:06:09.300Z,3.40
2022-12-28T04:07:09.318Z,2.60
2022-12-28T04:08:09.304Z,3.30
2022-12-28T04:09:09.277Z,1.30
2022-12-28T04:10:09.307Z,1.40
2022-12-28T04:11:09.328Z,1.40
2022-12-28T04:12:09.255Z,1.50
2022-12-28T04:13:09.299Z,1.60
2022-12-28T04:14:11.166Z,1.80
2022-12-28T04:15:09.252Z,1.80
2022-12-28T04:16:09.342Z,1.40
2022-12-28T04:17:09.248Z,3.30
2022-12-28T04:18:09.231Z,1.60
2022-12-28T04:19:09.194Z,2.40
2022-12-28T04:20:09.219Z,0.80
2022-12-28T04:21:09.232Z,2.30
2022-12-28T04:22:09.219Z,2.00
2022-12-28T04:23:09.204Z,1.60
2022-12-28T04:24:09.208Z,2.20
2022-12-28T04:25:09.183Z,4.20
2022-12-28T04:26:09.159Z,1.00
2022-12-28T04:27:09.212Z,1.40
2022-12-28T04:28:09.158Z,3.10
2022-12-28T04:29:09.180Z,3.10
2022-12-28T04:30:09.153Z,1.00
2022-12-28T04:31:09.144Z,1.70
2022-12-28T04:32:09.143Z,3.00
2022-12-28T04:33:09.338Z,4.40
2022-12-28T04:34:09.096Z,1.00
2022-12-28T04:35:09.137Z,3.10
2022-12-28T04:36:09.098Z,1.10
2022-12-28T04:37:09.107Z,2.40
2022-12-28T04:38:09.095Z,3.70
2022-12-28T04:39:09.089Z,3.00
2022-12-28T04:40:09.095Z,1.40
2022-12-28T04:41:09.076Z,1.40
2022-12-28T04:42:09.073Z,1.80
2022-12-28T04:43:09.090Z,1.60
2022-12-28T04:44:09.108Z,1.40
2022-12-28T04:45:09.052Z,1.30
2022-12-28T04:46:09.093Z,1.30
2022-12-28T04:47:09.014Z,1.90
2022-12-28T04:48:10.023Z,2.80
2022-12-28T04:49:09.104Z,4.80
2022-12-28T04:50:09.010Z,1.40
2022-12-28T04:51:09.003Z,1.50
2022-12-28T04:52:09.008Z,2.10
2022-12-28T04:53:09.004Z,1.30
2022-12-28T04:54:08.983Z,4.00
2022-12-28T04:55:09.015Z,1.10
2022-12-28T04:56:09.994Z,2.00
2022-12-28T04:57:08.982Z,1.40
2022-12-28T04:58:08.960Z,1.10
2022-12-28T04:59:08.945Z,6.00
2022-12-28T05:00:08.965Z,1.70
2022-12-28T05:01:09.102Z,1.90
2022-12-28T05:02:09.174Z,2.30
2022-12-28T05:03:08.925Z,4.60
2022-12-28T05:04:08.941Z,2.00
2022-12-28T05:05:08.911Z,1.30
2022-12-28T05:06:08.952Z,1.50
2022-12-28T05:07:08.926Z,1.60
2022-12-28T05:08:08.906Z,1.40
2022-12-28T05:09:08.898Z,1.60
2022-12-28T05:10:08.892Z,1.50
2022-12-28T05:11:08.924Z,1.90
2022-12-28T05:12:08.862Z,1.40
2022-12-28T05:13:08.866Z,2.70
2022-12-28T05:14:08.883Z,1.60
2022-12-28T05:15:08.919Z,1.90
2022-12-28T05:16:08.892Z,2.30
2022-12-28T05:17:08.879Z,1.70
2022-12-28T05:18:08.852Z,1.90
2022-12-28T05:19:08.866Z,2.30
2022-12-28T05:20:08.858Z,3.90
2022-12-28T05:21:08.828Z,6.60
2022-12-28T05:22:08.861Z,1.70
2022-12-28T05:23:08.783Z,2.80
2022-12-28T05:24:08.802Z,1.90
2022-12-28T05:25:08.868Z,2.10
2022-12-28T05:26:08.795Z,1.60
2022-12-28T05:27:08.802Z,1.60
2022-12-28T05:28:08.783Z,1.90
2022-12-28T05:29:08.753Z,2.70
2022-12-28T05:30:08.796Z,2.20
2022-12-28T05:31:08.842Z,3.40
2022-12-28T05:32:08.790Z,4.50
2022-12-28T05:33:08.729Z,2.90
2022-12-28T05:34:08.707Z,1.40
2022-12-28T05:35:08.754Z,1.50
2022-12-28T05:36:08.711Z,2.50
2022-12-28T05:37:08.739Z,2.60
2022-12-28T05:38:08.706Z,0.80
2022-12-28T05:39:08.768Z,1.70
2022-12-28T05:40:08.696Z,1.50
2022-12-28T05:41:08.683Z,1.70
2022-12-28T05:42:08.708Z,3.50
2022-12-28T05:43:08.707Z,3.50
2022-12-28T05:44:08.700Z,1.90
2022-12-28T05:45:08.714Z,1.00
2022-12-28T05:46:08.698Z,2.20
2022-12-28T05:47:08.680Z,3.50
2022-12-28T05:48:08.674Z,1.70
2022-12-28T05:49:08.658Z,1.30
2022-12-28T05:50:08.670Z,1.50
2022-12-28T05:51:08.630Z,2.10
2022-12-28T05:52:08.598Z,4.20
2022-12-28T05:53:08.609Z,3.30
2022-12-28T05:54:08.624Z,10.90
2022-12-28T05:55:08.753Z,3.50
2022-12-28T05:56:13.870Z,2.40
2022-12-28T05:57:10.645Z,1.60
2022-12-28T05:58:08.577Z,1.30
2022-12-28T05:59:08.603Z,2.80
2022-12-28T06:00:08.593Z,3.40
2022-12-28T06:01:08.721Z,2.50
2022-12-28T06:02:08.757Z,1.20
2022-12-28T06:03:08.826Z,1.10
2022-12-28T06:04:08.562Z,2.10
2022-12-28T06:05:08.574Z,0.90
2022-12-28T06:06:08.575Z,7.30
2022-12-28T06:07:08.514Z,2.20
2022-12-28T06:08:08.500Z,1.80
2022-12-28T06:09:08.493Z,1.70
2022-12-28T06:10:08.570Z,1.60
2022-12-28T06:11:08.618Z,2.80
2022-12-28T06:12:08.504Z,1.70
2022-12-28T06:13:09.479Z,1.70
2022-12-28T06:14:08.498Z,2.60
2022-12-28T06:15:08.475Z,3.90
2022-12-28T06:16:08.536Z,1.60
2022-12-28T06:17:08.508Z,1.30
2022-12-28T06:18:08.452Z,3.40
2022-12-28T06:19:08.475Z,1.00
2022-12-28T06:20:08.437Z,1.60
2022-12-28T06:21:08.432Z,1.20
2022-12-28T06:22:08.411Z,1.50
2022-12-28T06:23:08.648Z,1.50
2022-12-28T06:24:08.420Z,1.00
2022-12-28T06:25:08.422Z,2.80
2022-12-28T06:26:08.406Z,1.20
2022-12-28T06:27:08.393Z,2.60
2022-12-28T06:28:08.420Z,2.30
2022-12-28T06:29:08.395Z,2.90
2022-12-28T06:30:08.356Z,2.60
2022-12-28T06:31:08.381Z,1.90
2022-12-28T06:32:08.426Z,1.30
2022-12-28T06:33:08.342Z,2.20
2022-12-28T06:34:08.405Z,1.40
2022-12-28T06:35:08.310Z,3.10
2022-12-28T06:36:12.330Z,2.90
2022-12-28T06:37:09.317Z,1.60
2022-12-28T06:38:08.312Z,5.50
2022-12-28T06:39:08.421Z,1.30
2022-12-28T06:40:08.309Z,3.40
2022-12-28T06:41:15.564Z,2.60
2022-12-28T06:42:10.306Z,7.90
2022-12-28T06:43:08.297Z,3.40
2022-12-28T06:44:08.302Z,7.10
2022-12-28T06:45:08.321Z,1.60
2022-12-28T06:46:08.260Z,2.10
2022-12-28T06:47:08.257Z,5.70
2022-12-28T06:48:08.268Z,4.50
2022-12-28T06:49:08.231Z,2.90
2022-12-28T06:50:08.253Z,1.40
2022-12-28T06:51:08.270Z,11.40
2022-12-28T06:52:08.196Z,4.10
2022-12-28T06:53:08.188Z,1.20
2022-12-28T06:54:08.201Z,1.30
2022-12-28T06:55:08.190Z,1.50
2022-12-28T06:56:08.198Z,1.40
2022-12-28T06:57:08.166Z,3.00
2022-12-28T06:58:08.194Z,1.60
2022-12-28T06:59:08.183Z,1.20
2022-12-28T07:00:08.141Z,2.40
2022-12-28T07:01:08.324Z,4.10
2022-12-28T07:02:08.295Z,1.70
2022-12-28T07:03:08.166Z,4.60
2022-12-28T07:04:08.153Z,1.40
2022-12-28T07:05:08.094Z,1.70
2022-12-28T07:06:08.119Z,2.90
2022-12-28T07:07:08.143Z,1.40
2022-12-28T07:08:12.568Z,1.70
2022-12-28T07:09:08.065Z,1.80
2022-12-28T07:10:08.098Z,1.80
2022-12-28T07:11:08.088Z,3.00
2022-12-28T07:12:08.119Z,2.20
2022-12-28T07:13:08.090Z,2.10
2022-12-28T07:14:08.044Z,2.00
2022-12-28T07:15:08.066Z,1.30
2022-12-28T07:16:08.046Z,1.30
2022-12-28T07:17:08.035Z,2.10
2022-12-28T07:18:08.161Z,1.30
2022-12-28T07:19:08.064Z,2.20
2022-12-28T07:20:08.037Z,1.40
2022-12-28T07:21:08.025Z,2.00
2022-12-28T07:22:08.012Z,2.30
2022-12-28T07:23:08.022Z,1.30
2022-12-28T07:24:08.038Z,12.70
2022-12-28T07:25:08.007Z,2.30
2022-12-28T07:26:08.019Z,1.70
2022-12-28T07:27:07.991Z,1.20
2022-12-28T07:28:07.958Z,2.60
2022-12-28T07:29:08.052Z,1.10
2022-12-28T07:30:07.965Z,1.80
2022-12-28T07:31:08.004Z,1.50
2022-12-28T07:32:07.946Z,4.90
2022-12-28T07:33:07.961Z,3.60
2022-12-28T07:34:07.941Z,1.40
2022-12-28T07:35:07.931Z,2.40
2022-12-28T07:36:07.887Z,1.90
2022-12-28T07:37:07.900Z,1.50
2022-12-28T07:38:07.879Z,1.20
2022-12-28T07:39:07.909Z,3.90
2022-12-28T07:40:07.917Z,3.10
2022-12-28T07:41:07.877Z,2.90
2022-12-28T07:42:07.875Z,1.90
2022-12-28T07:43:07.851Z,1.50
2022-12-28T07:44:07.865Z,1.20
2022-12-28T07:45:09.752Z,1.90
2022-12-28T07:46:07.894Z,3.50
2022-12-28T07:47:07.857Z,3.80
2022-12-28T07:48:07.828Z,1.50
2022-12-28T07:49:07.799Z,2.10
2022-12-28T07:50:07.835Z,1.80
2022-12-28T07:51:07.938Z,1.90
2022-12-28T07:52:07.824Z,1.70
2022-12-28T07:53:07.807Z,4.00
2022-12-28T07:54:07.793Z,5.70
2022-12-28T07:55:07.841Z,3.90
2022-12-28T07:56:07.800Z,2.80
2022-12-28T07:57:07.780Z,1.40
2022-12-28T07:58:07.780Z,1.70
2022-12-28T07:59:07.775Z,1.60
2022-12-28T08:00:07.727Z,1.40
2022-12-28T08:01:07.865Z,1.60
2022-12-28T08:02:07.975Z,1.40
2022-12-28T08:03:07.760Z,1.00
2022-12-28T08:04:07.731Z,1.50
2022-12-28T08:05:07.790Z,1.90
2022-12-28T08:06:07.711Z,1.10
2022-12-28T08:07:07.734Z,1.50
2022-12-28T08:08:07.685Z,2.90
2022-12-28T08:09:07.693Z,2.40
2022-12-28T08:10:07.703Z,1.30
2022-12-28T08:11:07.695Z,1.10
2022-12-28T08:12:07.674Z,0.70
2022-12-28T08:13:07.684Z,1.00
2022-12-28T08:14:07.681Z,1.50
2022-12-28T08:15:07.701Z,2.40
2022-12-28T08:16:07.627Z,1.50
2022-12-28T08:17:07.599Z,1.50
2022-12-28T08:18:07.661Z,1.90
2022-12-28T08:19:07.636Z,1.20
2022-12-28T08:20:07.604Z,1.20
2022-12-28T08:21:07.610Z,2.30
2022-12-28T08:22:07.604Z,1.30
2022-12-28T08:23:07.582Z,0.80
2022-12-28T08:24:07.630Z,3.30
2022-12-28T08:25:07.625Z,1.90
2022-12-28T08:26:07.560Z,1.30
2022-12-28T08:27:07.610Z,0.80
2022-12-28T08:28:07.553Z,0.90
2022-12-28T08:29:07.600Z,3.50
2022-12-28T08:30:07.564Z,1.10
2022-12-28T08:31:07.591Z,0.70
2022-12-28T08:32:07.571Z,4.60
2022-12-28T08:33:07.537Z,1.70
2022-12-28T08:34:07.541Z,1.20
2022-12-28T08:35:07.611Z,3.30
2022-12-28T08:36:07.529Z,1.80
2022-12-28T08:37:07.521Z,1.20
2022-12-28T08:38:07.489Z,1.70
2022-12-28T08:39:07.555Z,1.10
2022-12-28T08:40:07.475Z,1.00
2022-12-28T08:41:07.490Z,1.10
2022-12-28T08:42:07.486Z,0.80
2022-12-28T08:43:07.451Z,0.60
2022-12-28T08:44:07.469Z,1.50
2022-12-28T08:45:07.435Z,2.00
2022-12-28T08:46:07.584Z,5.10
2022-12-28T08:47:07.464Z,1.30
2022-12-28T08:48:07.412Z,1.20
2022-12-28T08:49:07.420Z,1.90
2022-12-28T08:50:07.768Z,1.30
2022-12-28T08:51:07.537Z,1.20
2022-12-28T08:52:07.406Z,2.30
2022-12-28T08:53:07.380Z,1.00
2022-12-28T08:54:07.363Z,0.90
2022-12-28T08:55:07.375Z,0.80
2022-12-28T08:56:07.416Z,3.50
2022-12-28T08:57:07.532Z,3.00
2022-12-28T08:58:07.392Z,1.30
2022-12-28T08:59:07.385Z,1.50
2022-12-28T09:00:07.377Z,2.00
2022-12-28T09:01:07.464Z,1.20
2022-12-28T09:02:07.430Z,1.50
2022-12-28T09:03:07.434Z,8.10
2022-12-28T09:04:07.297Z,1.80
2022-12-28T09:05:07.323Z,1.40
2022-12-28T09:06:07.286Z,3.70
2022-12-28T09:07:07.298Z,1.10
2022-12-28T09:08:07.318Z,1.20
2022-12-28T09:09:07.548Z,1.20
2022-12-28T09:10:07.343Z,1.60
2022-12-28T09:11:07.236Z,3.10
2022-12-28T09:12:07.259Z,1.40
2022-12-28T09:13:07.285Z,0.90
2022-12-28T09:14:07.268Z,1.10
2022-12-28T09:15:07.265Z,1.10
2022-12-28T09:16:07.251Z,3.40
2022-12-28T09:17:07.235Z,2.00
2022-12-28T09:18:07.201Z,1.10
2022-12-28T09:19:07.224Z,1.40
2022-12-28T09:20:07.192Z,5.40
2022-12-28T09:21:07.215Z,1.50
2022-12-28T09:22:07.198Z,1.30
2022-12-28T09:23:07.201Z,1.50
2022-12-28T09:24:07.256Z,5.30
2022-12-28T09:25:07.183Z,1.10
2022-12-28T09:26:08.150Z,1.80
2022-12-28T09:27:07.125Z,1.30
2022-12-28T09:28:07.164Z,5.20
2022-12-28T09:29:07.173Z,5.80
2022-12-28T09:30:07.258Z,1.40
2022-12-28T09:31:07.173Z,1.30
2022-12-28T09:32:07.149Z,2.10
2022-12-28T09:33:07.129Z,1.30
2022-12-28T09:35:09.146Z,2.00
2022-12-28T09:36:07.096Z,1.60
2022-12-28T09:37:07.104Z,9.50
2022-12-28T09:38:07.064Z,1.10
2022-12-28T09:39:07.129Z,1.90
2022-12-28T09:40:07.039Z,73.40
2022-12-28T09:41:07.072Z,2.10
2022-12-28T09:42:07.070Z,2.20
2022-12-28T09:43:07.044Z,2.90
2022-12-28T09:44:07.039Z,1.30
2022-12-28T09:45:07.031Z,1.60
2022-12-28T09:46:07.070Z,2.50
2022-12-28T09:47:07.045Z,1.10
2022-12-28T09:48:07.022Z,1.10
2022-12-28T09:49:06.972Z,2.20
2022-12-28T09:50:06.967Z,1.00
2022-12-28T09:51:07.078Z,1.50
2022-12-28T09:52:06.971Z,1.60
2022-12-28T09:53:07.092Z,1.60
2022-12-28T09:54:06.953Z,1.70
2022-12-28T09:55:06.973Z,2.70
2022-12-28T09:56:06.954Z,1.80
2022-12-28T09:57:07.083Z,1.10
2022-12-28T09:58:06.940Z,1.30
2022-12-28T09:59:06.954Z,2.10
2022-12-28T10:00:06.940Z,2.00
2022-12-28T10:01:06.922Z,3.30
2022-12-28T10:02:07.122Z,1.80
2022-12-28T10:03:06.956Z,1.40
2022-12-28T10:04:06.910Z,10.20
2022-12-28T10:05:06.917Z,7.10
2022-12-28T10:06:06.893Z,5.10
2022-12-28T10:07:06.897Z,18.90
2022-12-28T10:08:06.914Z,61.00
2022-12-28T10:09:06.862Z,83.70
2022-12-28T10:10:06.863Z,87.90
2022-12-28T10:11:06.871Z,80.50
2022-12-28T10:12:07.833Z,69.20
2022-12-28T10:13:16.564Z,52.60
2022-12-28T10:14:08.851Z,17.20
2022-12-28T10:15:06.867Z,20.50
2022-12-28T10:16:06.855Z,62.40
2022-12-28T10:17:06.793Z,138.40
2022-12-28T10:18:06.810Z,87.40
2022-12-28T10:19:06.867Z,113.40
2022-12-28T10:20:06.795Z,192.30
2022-12-28T10:21:06.810Z,524.10
2022-12-28T10:22:06.809Z,617.60
2022-12-28T10:23:06.795Z,698.10
2022-12-28T10:24:35.138Z,166.70
2022-12-28T10:25:08.748Z,426.10
2022-12-28T10:26:06.771Z,744.80
2022-12-28T10:27:06.761Z,394.10
2022-12-28T10:28:06.731Z,558.80
2022-12-28T10:29:06.744Z,888.20
2022-12-28T10:30:06.766Z,908.30
2022-12-28T10:31:06.773Z,917.00
2022-12-28T10:32:06.736Z,988.60
2022-12-28T10:33:09.760Z,1006.10
2022-12-28T10:34:07.726Z,1289.20
2022-12-28T10:35:06.770Z,1162.10
2022-12-28T10:36:06.692Z,1108.80
2022-12-28T10:37:06.694Z,1170.10
2022-12-28T10:38:07.712Z,1137.40
2022-12-28T10:39:06.689Z,1274.60
2022-12-28T10:40:06.655Z,1668.60
2022-12-28T10:41:06.684Z,1712.70
2022-12-28T10:42:06.666Z,1593.70
2022-12-28T10:43:10.782Z,1850.10
2022-12-28T10:44:37.919Z,1999.90
2022-12-28T10:45:07.639Z,1951.60
2022-12-28T10:46:06.699Z,1972.30
2022-12-28T10:47:06.676Z,1782.00
2022-12-28T10:48:06.635Z,1854.40
2022-12-28T10:49:09.824Z,1493.00
2022-12-28T10:50:37.549Z,1562.80
2022-12-28T10:51:08.644Z,1816.90
2022-12-28T10:52:06.607Z,1002.00
2022-12-28T10:53:06.617Z,1221.80
2022-12-28T10:54:06.646Z,1350.50
2022-12-28T10:55:08.099Z,1096.90
2022-12-28T10:56:06.583Z,1006.70
2022-12-28T10:57:06.562Z,1146.40
2022-12-28T10:59:08.561Z,1563.10
2022-12-28T11:00:06.550Z,1598.10
2022-12-28T11:01:07.107Z,1551.10
2022-12-28T11:02:06.733Z,1350.30
2022-12-28T11:03:06.592Z,1306.60
2022-12-28T11:04:06.507Z,1053.70
2022-12-28T11:05:06.533Z,961.30
2022-12-28T11:06:06.506Z,738.80
2022-12-28T11:07:06.520Z,954.40
2022-12-28T11:08:06.511Z,783.70
2022-12-28T11:09:06.504Z,661.60
2022-12-28T11:10:06.518Z,742.80
2022-12-28T11:11:06.480Z,1087.60
2022-12-28T11:12:06.485Z,915.30
2022-12-28T11:13:06.504Z,896.60
2022-12-28T11:14:06.482Z,695.30
2022-12-28T11:15:06.507Z,705.80
2022-12-28T11:16:06.442Z,777.70
2022-12-28T11:17:06.461Z,852.30
2022-12-28T11:18:06.468Z,777.80
2022-12-28T11:19:06.608Z,891.90
2022-12-28T11:20:06.451Z,1218.50
2022-12-28T11:21:06.471Z,1194.60
2022-12-28T11:22:06.400Z,1266.50
2022-12-28T11:23:06.406Z,1846.60
2022-12-28T11:24:06.476Z,1999.90
2022-12-28T11:25:06.400Z,1999.90
2022-12-28T11:26:06.451Z,1999.90
2022-12-28T11:27:06.419Z,1999.90
2022-12-28T11:28:06.401Z,1999.90
2022-12-28T11:29:06.383Z,1999.90
2022-12-28T11:30:06.425Z,1999.90
2022-12-28T11:31:06.444Z,1999.90
2022-12-28T11:32:06.347Z,1999.90
2022-12-28T11:33:06.360Z,1999.90
2022-12-28T11:34:06.389Z,1999.90
2022-12-28T11:35:06.395Z,1999.90
2022-12-28T11:36:10.052Z,1999.90
2022-12-28T11:37:06.337Z,1999.90
2022-12-28T11:38:06.318Z,1999.90
2022-12-28T11:39:06.319Z,1999.90
2022-12-28T11:40:06.320Z,1999.90
2022-12-28T11:41:06.348Z,1999.90
2022-12-28T11:43:07.322Z,1999.90
2022-12-28T11:44:06.285Z,1999.90
2022-12-28T11:45:06.286Z,1999.90
2022-12-28T11:46:06.299Z,1999.90
2022-12-28T11:47:06.257Z,1999.90
2022-12-28T11:48:06.250Z,1999.90
2022-12-28T11:49:06.261Z,1999.90
2022-12-28T11:50:06.268Z,1999.90
2022-12-28T11:51:06.268Z,1999.90
2022-12-28T11:52:06.298Z,1999.90
2022-12-28T11:53:12.155Z,1999.90
2022-12-28T11:54:06.231Z,1999.90
2022-12-28T11:55:06.216Z,1999.90
2022-12-28T11:56:06.229Z,1999.90
2022-12-28T11:57:06.304Z,1999.90
2022-12-28T11:58:06.233Z,1999.90
2022-12-28T11:59:07.203Z,1999.90
2022-12-28T12:00:06.194Z,1999.90
2022-12-28T12:01:06.171Z,1999.90
2022-12-28T12:02:06.182Z,1999.90
2022-12-28T12:03:06.259Z,1999.90
2022-12-28T12:04:06.160Z,1999.90
2022-12-28T12:05:06.185Z,1999.90
2022-12-28T12:06:06.144Z,1999.90
2022-12-28T12:07:06.180Z,1999.90
2022-12-28T12:08:06.184Z,1999.90
2022-12-28T12:09:06.122Z,1999.90
2022-12-28T12:10:06.137Z,1999.90
2022-12-28T12:11:06.097Z,1999.90
2022-12-28T12:12:06.124Z,1999.90
2022-12-28T12:13:06.098Z,1999.90
2022-12-28T12:14:06.228Z,1999.90
2022-12-28T12:15:06.111Z,1999.90
2022-12-28T12:16:06.103Z,1999.90
2022-12-28T12:17:06.222Z,1999.90
2022-12-28T12:18:06.070Z,1999.90
2022-12-28T12:19:06.210Z,1999.90
2022-12-28T12:20:06.064Z,1999.90
2022-12-28T12:21:10.237Z,1999.90
2022-12-28T12:22:08.016Z,1999.90
2022-12-28T12:23:06.069Z,1999.90
2022-12-28T12:24:06.053Z,1999.90
2022-12-28T12:25:06.155Z,1999.90
2022-12-28T12:26:06.048Z,1999.90
2022-12-28T12:27:11.891Z,1999.90
2022-12-28T12:28:08.016Z,1999.90
2022-12-28T12:29:06.019Z,1999.90
2022-12-28T12:30:05.995Z,1999.90
2022-12-28T12:31:06.052Z,1999.90
2022-12-28T12:32:06.005Z,1999.90
2022-12-28T12:33:05.981Z,1999.90
2022-12-28T12:34:05.993Z,1999.90
2022-12-28T12:35:05.994Z,1999.90
2022-12-28T12:36:06.063Z,1935.00
2022-12-28T12:37:06.020Z,1999.90
2022-12-28T12:38:05.946Z,1999.90
2022-12-28T12:39:05.942Z,1999.90
2022-12-28T12:40:05.914Z,1999.90
2022-12-28T12:41:05.946Z,1999.90
2022-12-28T12:42:05.957Z,1999.90
2022-12-28T12:43:05.917Z,1999.90
2022-12-28T12:44:05.906Z,1999.90
2022-12-28T12:45:05.920Z,1999.90
2022-12-28T12:46:05.921Z,1999.90
2022-12-28T12:47:06.369Z,1999.90
2022-12-28T12:48:06.877Z,1999.90
2022-12-28T12:49:05.868Z,1999.90
2022-12-28T12:50:05.924Z,1999.90
2022-12-28T12:51:05.870Z,1999.90
2022-12-28T12:52:05.876Z,1999.90
2022-12-28T12:53:05.891Z,1999.90
2022-12-28T12:54:05.851Z,1999.90
2022-12-28T12:55:05.845Z,1999.90
2022-12-28T12:56:05.842Z,1999.90
2022-12-28T12:57:05.908Z,1999.90
2022-12-28T12:58:05.852Z,1999.90
2022-12-28T12:59:05.826Z,1999.90
2022-12-28T13:00:05.823Z,1999.90
2022-12-28T13:01:06.939Z,1999.90
2022-12-28T13:02:06.012Z,1999.90
2022-12-28T13:03:05.863Z,1999.90
2022-12-28T13:04:05.779Z,1999.90
2022-12-28T13:05:05.756Z,1999.90